George S. — A8TJ9 — position and weather

sailwx.info

Track history (hours):
 
Tides and Currents Weather Stations Pressure Air Temp Water Temp Dewpoint Dewpoint Depression Visibility Wind Speed Wind Dir Waves Ship Positions

George S.

Last reported at 2017-Jun-05 01:25 UTC. Time now 2017-Jun-23 22:12 UTC.
Position N 27°38' W 016°28'.
Warning: this ship's position is 18 days out of date.

Length 274 m; draft 9.3 m.

Type: Tanker. MMSI: 636014372.

Date/timePositionNaut miles runAvg speedWind from/ knotsBaromVisibWave heightAir tempDewpointWater temp
2017-Jun-05 01:25N 27°38' W 016°28'614.3
2017-Jun-05 00:59N 27°44' W 016°25'714.2
2017-Jun-05 00:30N 27°50' W 016°23'1614.0
2017-Jun-04 23:20N 28°06' W 016°18'714.2
2017-Jun-04 22:50N 28°13' W 016°16'514.1
2017-Jun-04 22:28N 28°18' W 016°14'714.1
2017-Jun-04 21:59N 28°24' W 016°13'510.8
2017-Jun-04 21:30N 28°29' W 016°11'0 0.6
2017-Jun-04 20:54N 28°29' W 016°12'0 0.1
2017-Jun-04 20:24N 28°29' W 016°12'0 0.1
2017-Jun-04 19:57N 28°29' W 016°12'0 0.1
2017-Jun-04 19:24N 28°29' W 016°12'0 0.1
2017-Jun-04 19:00N 28°29' W 016°12'0 0.0
2017-Jun-04 18:30N 28°29' W 016°12'0 0.1
2017-Jun-04 18:00N 28°29' W 016°12'0 0.0
2017-Jun-04 16:30N 28°29' W 016°12'0 0.0
2017-Jun-04 15:48N 28°29' W 016°12'0 0.1
2017-Jun-04 15:30N 28°29' W 016°12'0 0.1
2017-Jun-04 14:48N 28°29' W 016°12'0 0.2
2017-Jun-04 14:30N 28°29' W 016°12'0 0.0
2017-Jun-04 13:30N 28°29' W 016°12'0 0.1
2017-Jun-04 13:00N 28°29' W 016°12'0 0.0
2017-Jun-04 12:06N 28°29' W 016°12'0 0.2
2017-Jun-04 11:48N 28°29' W 016°12'0 0.0
2017-Jun-04 11:09N 28°29' W 016°12'0 0.3
2017-Jun-04 10:54N 28°29' W 016°12'0 0.0
2017-Jun-04 10:18N 28°29' W 016°12'0 0.1
2017-Jun-04 08:54N 28°29' W 016°12'0 0.0
2017-Jun-04 08:15N 28°29' W 016°12'0 0.2
2017-Jun-04 07:42N 28°29' W 016°12'0 1.4
2017-Jun-04 07:30N 28°29' W 016°12'2 3.5
2017-Jun-04 07:00N 28°27' W 016°11'0 0.9
2017-Jun-04 06:30N 28°27' W 016°12'1 1.2
2017-Jun-04 06:00N 28°27' W 016°12'1 2.0
2017-Jun-04 05:30N 28°26' W 016°13'1 1.7
2017-Jun-04 05:00N 28°27' W 016°12'3 5.4
2017-Jun-04 04:30N 28°27' W 016°09'5 9.0
2017-Jun-04 04:00N 28°26' W 016°04'4 8.8
2017-Jun-04 03:30N 28°25' W 015°59'510.2
2017-Jun-04 03:00N 28°28' W 015°54'612.3
2017-Jun-04 02:30N 28°33' W 015°50'612.8
2017-Jun-04 02:00N 28°38' W 015°45'713.4
2017-Jun-04 01:30N 28°44' W 015°41'713.5
2017-Jun-04 01:00N 28°50' W 015°37'713.4
2017-Jun-04 00:30N 28°55' W 015°34'713.5
2017-Jun-04 00:00N 29°01' W 015°30'713.8
2017-Jun-03 23:29N 29°07' W 015°25'5313.1
2017-Jun-03 19:27N 29°57' W 015°04'613.4
2017-Jun-03 19:00N 30°02' W 015°02'713.4
2017-Jun-03 18:30N 30°09' W 014°59'713.3
2017-Jun-03 18:00N 30°15' W 014°56'711.7
2017-Jun-03 17:24N 30°22' W 014°54'1 2.8
2017-Jun-03 17:00N 30°23' W 014°54'2 2.4
2017-Jun-03 16:03N 30°25' W 014°54'1 2.5
2017-Jun-03 15:45N 30°26' W 014°54'1 2.4
2017-Jun-03 15:28N 30°26' W 014°55'1 2.5
2017-Jun-03 14:58N 30°28' W 014°55'3 2.5
2017-Jun-03 13:56N 30°30' W 014°54'1 2.7
2017-Jun-03 13:24N 30°32' W 014°54'38 7.1
2017-Jun-03 07:59N 31°09' W 014°45'1213.4
2017-Jun-03 07:05N 31°21' W 014°42'2013.3
2017-Jun-03 05:36N 31°40' W 014°35'213.5
2017-Jun-03 05:26N 31°42' W 014°35'613.5
2017-Jun-03 05:00N 31°48' W 014°33'41013.4
2017-Jun-01 22:27N 38°23' W 012°20'1513.4
2017-Jun-01 21:18N 38°38' W 012°14'813.3
2017-Jun-01 20:42N 38°46' W 012°12'313.9
2017-Jun-01 20:27N 38°49' W 012°11'813.8
2017-Jun-01 19:54N 38°56' W 012°08'613.7
2017-Jun-01 19:29N 39°02' W 012°06'613.6
2017-Jun-01 19:00N 39°08' W 012°04'813.6
2017-Jun-01 18:25N 39°16' W 012°01'613.7
2017-Jun-01 18:00N 39°21' W 011°59'713.6
2017-Jun-01 17:30N 39°28' W 011°57'714.1
2017-Jun-01 17:00N 39°35' W 011°54'914.1
2017-Jun-01 16:21N 39°44' W 011°51'514.2
2017-Jun-01 16:00N 39°48' W 011°49'714.1
2017-Jun-01 15:31N 39°55' W 011°47'713.9
2017-Jun-01 15:00N 40°02' W 011°45'714.2
2017-Jun-01 14:30N 40°09' W 011°42'55613.4
2017-May-30 20:54N 48°31' W 006°10'2412.4
2017-May-30 18:56N 48°52' W 005°51'611.8
2017-May-30 18:26N 48°56' W 005°44'1512.3
2017-May-30 17:14N 49°03' W 005°24'210.2
2017-May-30 17:00N 49°04' W 005°21'5 8.5
2017-May-30 16:25N 49°07' W 005°15'3 6.3
2017-May-30 15:56N 49°08' W 005°11'4212.5
2017-May-30 12:36N 49°29' W 004°15'313.6
2017-May-30 12:23N 49°31' W 004°11'513.2
2017-May-30 12:00N 49°34' W 004°05'612.8
2017-May-30 11:30N 49°37' W 003°56'612.4
2017-May-30 11:00N 49°40' W 003°48'611.9
2017-May-30 10:30N 49°43' W 003°40'611.5
2017-May-30 10:00N 49°46' W 003°32'611.3
2017-May-30 09:30N 49°48' W 003°25'611.3
2017-May-30 09:00N 49°51' W 003°17'611.6
2017-May-30 08:30N 49°54' W 003°09'612.3
2017-May-30 08:00N 49°57' W 003°01'712.7
2017-May-30 07:28N 49°60' W 002°51'613.5
2017-May-30 07:00N 50°01' W 002°42'714.2
2017-May-30 06:30N 50°03' W 002°31'1015.3
2017-May-30 05:52N 50°05' W 002°16'616.2
2017-May-30 05:30N 50°07' W 002°07'3715.4
2017-May-30 03:05N 49°56' W 001°12'115.2
2017-May-30 03:00N 49°55' W 001°10'914.5
2017-May-30 02:22N 49°50' W 000°58'513.5
2017-May-30 01:59N 49°47' W 000°51'612.9
2017-May-30 01:31N 49°44' W 000°44'612.5
2017-May-30 01:00N 49°40' W 000°36'611.7
2017-May-30 00:30N 49°39' W 000°27'612.1
2017-May-30 00:00N 49°36' W 000°19'611.5
2017-May-29 23:30N 49°34' W 000°11'510.2
2017-May-29 23:00N 49°31' W 000°04'713.1
2017-May-29 22:30N 49°29' E 000°06'3 4.8
2017-May-29 21:59N 49°28' E 000°09'0 0.0
2017-May-29 21:29N 49°28' E 000°09'0 0.0
2017-May-29 20:59N 49°28' E 000°09'0 0.0
2017-May-29 20:29N 49°28' E 000°09'0 0.0
2017-May-29 19:59N 49°28' E 000°09'0 0.0
2017-May-29 19:29N 49°28' E 000°09'0 0.0
2017-May-29 18:59N 49°28' E 000°09'0 0.0
2017-May-29 18:29N 49°28' E 000°09'0 0.0
2017-May-29 17:59N 49°28' E 000°09'0 0.0
2017-May-29 17:29N 49°28' E 000°09'0 0.0
2017-May-29 16:59N 49°28' E 000°09'0 0.0
2017-May-29 16:29N 49°28' E 000°09'0 0.0
2017-May-29 15:59N 49°28' E 000°09'0 0.0
2017-May-29 15:29N 49°28' E 000°09'0 0.0
2017-May-29 14:59N 49°28' E 000°09'0 0.0
2017-May-29 14:29N 49°28' E 000°09'0 0.0
2017-May-29 13:29N 49°28' E 000°09'0 0.0
2017-May-29 12:59N 49°28' E 000°09'0 0.0
2017-May-29 12:29N 49°28' E 000°09'0 0.0
2017-May-29 11:59N 49°28' E 000°09'0 0.0
2017-May-29 11:29N 49°28' E 000°09'0 0.0
2017-May-29 10:59N 49°28' E 000°09'0 0.0
2017-May-29 10:29N 49°28' E 000°09'0 0.0
2017-May-29 09:59N 49°28' E 000°09'0 0.0
2017-May-29 09:29N 49°28' E 000°09'0 0.0
2017-May-29 08:59N 49°28' E 000°09'0 0.0
2017-May-29 08:29N 49°28' E 000°09'0 0.0
2017-May-29 07:59N 49°28' E 000°09'0 0.0
2017-May-29 07:29N 49°28' E 000°09'0 0.0
2017-May-29 06:59N 49°28' E 000°09'0 0.0
2017-May-29 06:29N 49°28' E 000°09'0 0.0
2017-May-29 05:59N 49°28' E 000°09'0 0.0
2017-May-29 05:29N 49°28' E 000°09'0 0.0
2017-May-29 04:59N 49°28' E 000°09'0 0.0
2017-May-29 04:29N 49°28' E 000°09'0 0.0
2017-May-29 03:59N 49°28' E 000°09'0 0.0
2017-May-29 03:29N 49°28' E 000°09'0 0.0
2017-May-29 02:59N 49°28' E 000°09'0 0.0
2017-May-29 02:29N 49°28' E 000°09'0 0.0
2017-May-29 01:59N 49°28' E 000°09'0 0.0
2017-May-29 01:29N 49°28' E 000°09'0 0.0
2017-May-29 00:59N 49°28' E 000°09'0 0.0
2017-May-29 00:29N 49°28' E 000°09'0 0.0
2017-May-28 23:59N 49°28' E 000°09'0 0.0
2017-May-28 23:29N 49°28' E 000°09'0 0.0
2017-May-28 22:59N 49°28' E 000°09'0 0.0
2017-May-28 22:29N 49°28' E 000°09'0 0.0
2017-May-28 21:59N 49°28' E 000°09'0 0.0
2017-May-28 21:29N 49°28' E 000°09'0 0.0
2017-May-28 20:59N 49°28' E 000°09'0 0.0
2017-May-28 20:29N 49°28' E 000°09'0 0.0
2017-May-28 19:59N 49°28' E 000°09'0 0.0
2017-May-28 19:29N 49°28' E 000°09'0 0.0
2017-May-28 18:59N 49°28' E 000°09'0 0.0
2017-May-28 18:29N 49°28' E 000°09'0 0.0
2017-May-28 17:59N 49°28' E 000°09'0 0.0
2017-May-28 17:29N 49°28' E 000°09'0 0.0
2017-May-28 16:59N 49°28' E 000°09'0 0.0
2017-May-28 16:29N 49°28' E 000°09'0 0.0
2017-May-28 15:59N 49°28' E 000°09'0 0.0
2017-May-28 15:29N 49°28' E 000°09'0 0.0
2017-May-28 14:59N 49°28' E 000°09'0 0.0
2017-May-28 13:59N 49°28' E 000°09'0 0.0
2017-May-28 13:29N 49°28' E 000°09'0 0.0
2017-May-28 12:59N 49°28' E 000°09'0 0.0
2017-May-28 12:29N 49°28' E 000°09'0 0.0
2017-May-28 11:59N 49°28' E 000°09'0 0.0
2017-May-28 11:29N 49°28' E 000°09'0 0.0
2017-May-28 10:59N 49°28' E 000°09'0 0.0
2017-May-28 10:30N 49°28' E 000°09'0 0.3
2017-May-28 10:00N 49°28' E 000°09'3 5.2
2017-May-28 09:30N 49°29' E 000°06'5 9.5
2017-May-28 09:00N 49°30' W 000°02'611.3
2017-May-28 08:30N 49°32' W 000°10'4 7.7
2017-May-28 08:00N 49°35' W 000°14'0 0.4
2017-May-28 07:29N 49°35' W 000°14'0 0.2
2017-May-28 06:59N 49°35' W 000°14'0 0.1
2017-May-28 06:29N 49°35' W 000°14'0 0.2
2017-May-28 05:59N 49°35' W 000°14'0 0.0
2017-May-28 05:29N 49°35' W 000°14'0 0.0
2017-May-28 04:59N 49°35' W 000°14'0 0.0
2017-May-28 04:29N 49°35' W 000°14'0 0.0
2017-May-28 03:59N 49°35' W 000°14'0 0.0
2017-May-28 03:29N 49°35' W 000°14'0 0.1
2017-May-28 02:59N 49°35' W 000°14'0 0.0
2017-May-28 02:29N 49°35' W 000°14'0 0.0
2017-May-28 01:59N 49°35' W 000°14'0 0.1
2017-May-28 01:29N 49°35' W 000°14'0 0.4
2017-May-28 00:59N 49°35' W 000°14'0 0.1
2017-May-28 00:29N 49°35' W 000°14'0 0.0
2017-May-27 23:59N 49°35' W 000°14'0 0.0
2017-May-27 23:29N 49°35' W 000°14'0 0.1
2017-May-27 22:59N 49°35' W 000°14'0 0.0
2017-May-27 22:29N 49°35' W 000°14'0 0.0
2017-May-27 21:59N 49°35' W 000°14'0 0.1
2017-May-27 21:29N 49°35' W 000°14'0 0.0
2017-May-27 20:59N 49°35' W 000°14'0 0.1
2017-May-27 20:29N 49°35' W 000°14'0 0.1
2017-May-27 19:59N 49°35' W 000°14'0 0.0
2017-May-27 19:29N 49°35' W 000°14'0 0.3
2017-May-27 18:59N 49°35' W 000°14'0 0.2
2017-May-27 18:29N 49°35' W 000°14'0 0.2
2017-May-27 17:59N 49°35' W 000°14'0 0.0
2017-May-27 17:29N 49°35' W 000°14'0 0.0
2017-May-27 16:59N 49°35' W 000°14'0 0.0
2017-May-27 16:29N 49°35' W 000°14'0 0.0
2017-May-27 15:59N 49°35' W 000°14'0 0.0
2017-May-27 15:29N 49°35' W 000°14'0 0.0
2017-May-27 14:59N 49°35' W 000°14'0 0.0
2017-May-27 14:29N 49°35' W 000°14'0 0.2
2017-May-27 13:29N 49°35' W 000°14'0 0.3
2017-May-27 12:59N 49°35' W 000°14'0 0.1
2017-May-27 12:29N 49°35' W 000°14'0 0.1
2017-May-27 11:59N 49°35' W 000°14'0 0.0
2017-May-27 11:29N 49°35' W 000°14'0 0.0
2017-May-27 10:59N 49°35' W 000°14'0 0.0
2017-May-27 10:23N 49°35' W 000°14'0 0.0
2017-May-27 09:59N 49°35' W 000°14'0 0.0
2017-May-27 09:29N 49°35' W 000°14'0 0.2
2017-May-27 08:59N 49°35' W 000°14'0 0.1
2017-May-27 08:29N 49°35' W 000°14'0 0.1
2017-May-27 07:59N 49°35' W 000°14'0 0.1
2017-May-27 07:29N 49°35' W 000°14'0 0.0
2017-May-27 06:59N 49°35' W 000°14'0 0.3
2017-May-27 06:29N 49°35' W 000°14'0 0.2
2017-May-27 05:59N 49°35' W 000°14'0 0.1
2017-May-27 05:29N 49°35' W 000°14'0 0.0
2017-May-27 04:59N 49°35' W 000°14'0 0.0
2017-May-27 04:29N 49°35' W 000°14'0 0.0
2017-May-27 03:59N 49°35' W 000°14'0 0.0
2017-May-27 03:29N 49°35' W 000°14'0 0.1
2017-May-27 02:59N 49°35' W 000°14'0 0.0
2017-May-27 02:29N 49°35' W 000°14'0 0.1
2017-May-27 01:59N 49°35' W 000°14'0 0.0
2017-May-27 01:29N 49°35' W 000°14'0 0.0
2017-May-27 00:59N 49°35' W 000°14'0 0.2
2017-May-27 00:29N 49°35' W 000°14'0 0.4
2017-May-26 23:59N 49°35' W 000°14'0 0.1
2017-May-26 23:29N 49°35' W 000°14'0 0.1
2017-May-26 22:59N 49°35' W 000°14'0 0.1
2017-May-26 22:29N 49°35' W 000°14'0 0.1
2017-May-26 21:59N 49°35' W 000°14'0 0.0
2017-May-26 21:29N 49°35' W 000°14'0 0.0
2017-May-26 20:59N 49°35' W 000°14'0 0.0
2017-May-26 20:29N 49°35' W 000°14'0 0.1
2017-May-26 19:59N 49°35' W 000°14'0 0.1
2017-May-26 19:29N 49°35' W 000°14'0 0.1
2017-May-26 18:59N 49°35' W 000°14'0 0.2
2017-May-26 18:29N 49°35' W 000°14'0 0.3
2017-May-26 17:59N 49°35' W 000°14'0 0.2
2017-May-26 17:29N 49°35' W 000°14'0 0.1
2017-May-26 16:59N 49°35' W 000°14'0 0.1
2017-May-26 16:29N 49°35' W 000°14'0 0.0
2017-May-26 15:59N 49°35' W 000°14'0 0.0
2017-May-26 15:29N 49°35' W 000°14'0 0.0
2017-May-26 14:59N 49°35' W 000°14'0 0.0
2017-May-26 14:29N 49°35' W 000°14'0 0.0
2017-May-26 13:29N 49°35' W 000°14'0 0.0
2017-May-26 12:59N 49°35' W 000°14'0 0.1
2017-May-26 12:29N 49°35' W 000°14'0 0.5
2017-May-26 11:59N 49°35' W 000°14'0 0.1
2017-May-26 11:29N 49°35' W 000°14'0 0.1
2017-May-26 10:59N 49°35' W 000°14'0 0.0
2017-May-26 10:29N 49°35' W 000°14'0 0.0
2017-May-26 09:59N 49°35' W 000°14'0 0.0
2017-May-26 09:29N 49°35' W 000°14'0 0.0
2017-May-26 08:59N 49°35' W 000°14'0 0.0
2017-May-26 08:29N 49°35' W 000°14'0 0.0
2017-May-26 07:59N 49°35' W 000°14'0 0.1
2017-May-26 07:29N 49°35' W 000°14'0 0.1
2017-May-26 06:59N 49°35' W 000°14'0 0.1
2017-May-26 06:29N 49°35' W 000°14'0 0.3
2017-May-26 05:59N 49°35' W 000°14'0 0.3
2017-May-26 05:29N 49°35' W 000°14'0 0.1
2017-May-26 04:59N 49°35' W 000°14'0 0.0
2017-May-26 04:29N 49°35' W 000°14'0 0.1
2017-May-26 03:59N 49°35' W 000°14'0 0.0
2017-May-26 03:29N 49°35' W 000°14'0 0.0
2017-May-26 02:59N 49°35' W 000°14'0 0.0
2017-May-26 02:29N 49°35' W 000°14'0 0.0
2017-May-26 01:59N 49°35' W 000°14'0 0.0
2017-May-26 01:29N 49°35' W 000°14'  
Track history (hours):
 
Tides and Currents Weather Stations Pressure Air Temp Water Temp Dewpoint Dewpoint Depression Visibility Wind Speed Wind Dir Waves Ship Positions

George S.

Last reported at 2017-Jun-05 01:25 UTC. Time now 2017-Jun-23 22:12 UTC.
Position N 27°38' W 016°28'.
Warning: this ship's position is 18 days out of date.

Length 274 m; draft 9.3 m.

Type: Tanker. MMSI: 636014372.

Date/timePositionNaut miles runAvg speedWind from/ knotsBaromVisibWave heightAir tempDewpointWater temp
2017-Jun-05 01:25N 27°38' W 016°28'614.3
2017-Jun-05 00:59N 27°44' W 016°25'714.2
2017-Jun-05 00:30N 27°50' W 016°23'1614.0
2017-Jun-04 23:20N 28°06' W 016°18'714.2
2017-Jun-04 22:50N 28°13' W 016°16'514.1
2017-Jun-04 22:28N 28°18' W 016°14'714.1
2017-Jun-04 21:59N 28°24' W 016°13'510.8
2017-Jun-04 21:30N 28°29' W 016°11'0 0.6
2017-Jun-04 20:54N 28°29' W 016°12'0 0.1
2017-Jun-04 20:24N 28°29' W 016°12'0 0.1
2017-Jun-04 19:57N 28°29' W 016°12'0 0.1
2017-Jun-04 19:24N 28°29' W 016°12'0 0.1
2017-Jun-04 19:00N 28°29' W 016°12'0 0.0
2017-Jun-04 18:30N 28°29' W 016°12'0 0.1
2017-Jun-04 18:00N 28°29' W 016°12'0 0.0
2017-Jun-04 16:30N 28°29' W 016°12'0 0.0
2017-Jun-04 15:48N 28°29' W 016°12'0 0.1
2017-Jun-04 15:30N 28°29' W 016°12'0 0.1
2017-Jun-04 14:48N 28°29' W 016°12'0 0.2
2017-Jun-04 14:30N 28°29' W 016°12'0 0.0
2017-Jun-04 13:30N 28°29' W 016°12'0 0.1
2017-Jun-04 13:00N 28°29' W 016°12'0 0.0
2017-Jun-04 12:06N 28°29' W 016°12'0 0.2
2017-Jun-04 11:48N 28°29' W 016°12'0 0.0
2017-Jun-04 11:09N 28°29' W 016°12'0 0.3
2017-Jun-04 10:54N 28°29' W 016°12'0 0.0
2017-Jun-04 10:18N 28°29' W 016°12'0 0.1
2017-Jun-04 08:54N 28°29' W 016°12'0 0.0
2017-Jun-04 08:15N 28°29' W 016°12'0 0.2
2017-Jun-04 07:42N 28°29' W 016°12'0 1.4
2017-Jun-04 07:30N 28°29' W 016°12'2 3.5
2017-Jun-04 07:00N 28°27' W 016°11'0 0.9
2017-Jun-04 06:30N 28°27' W 016°12'1 1.2
2017-Jun-04 06:00N 28°27' W 016°12'1 2.0
2017-Jun-04 05:30N 28°26' W 016°13'1 1.7
2017-Jun-04 05:00N 28°27' W 016°12'3 5.4
2017-Jun-04 04:30N 28°27' W 016°09'5 9.0
2017-Jun-04 04:00N 28°26' W 016°04'4 8.8
2017-Jun-04 03:30N 28°25' W 015°59'510.2
2017-Jun-04 03:00N 28°28' W 015°54'612.3
2017-Jun-04 02:30N 28°33' W 015°50'612.8
2017-Jun-04 02:00N 28°38' W 015°45'713.4
2017-Jun-04 01:30N 28°44' W 015°41'713.5
2017-Jun-04 01:00N 28°50' W 015°37'713.4
2017-Jun-04 00:30N 28°55' W 015°34'713.5
2017-Jun-04 00:00N 29°01' W 015°30'713.8
2017-Jun-03 23:29N 29°07' W 015°25'5313.1
2017-Jun-03 19:27N 29°57' W 015°04'613.4
2017-Jun-03 19:00N 30°02' W 015°02'713.4
2017-Jun-03 18:30N 30°09' W 014°59'713.3
2017-Jun-03 18:00N 30°15' W 014°56'711.7
2017-Jun-03 17:24N 30°22' W 014°54'1 2.8
2017-Jun-03 17:00N 30°23' W 014°54'2 2.4
2017-Jun-03 16:03N 30°25' W 014°54'1 2.5
2017-Jun-03 15:45N 30°26' W 014°54'1 2.4
2017-Jun-03 15:28N 30°26' W 014°55'1 2.5
2017-Jun-03 14:58N 30°28' W 014°55'3 2.5
2017-Jun-03 13:56N 30°30' W 014°54'1 2.7
2017-Jun-03 13:24N 30°32' W 014°54'38 7.1
2017-Jun-03 07:59N 31°09' W 014°45'1213.4
2017-Jun-03 07:05N 31°21' W 014°42'2013.3
2017-Jun-03 05:36N 31°40' W 014°35'213.5
2017-Jun-03 05:26N 31°42' W 014°35'613.5
2017-Jun-03 05:00N 31°48' W 014°33'41013.4
2017-Jun-01 22:27N 38°23' W 012°20'1513.4
2017-Jun-01 21:18N 38°38' W 012°14'813.3
2017-Jun-01 20:42N 38°46' W 012°12'313.9
2017-Jun-01 20:27N 38°49' W 012°11'813.8
2017-Jun-01 19:54N 38°56' W 012°08'613.7
2017-Jun-01 19:29N 39°02' W 012°06'613.6
2017-Jun-01 19:00N 39°08' W 012°04'813.6
2017-Jun-01 18:25N 39°16' W 012°01'613.7
2017-Jun-01 18:00N 39°21' W 011°59'713.6
2017-Jun-01 17:30N 39°28' W 011°57'714.1
2017-Jun-01 17:00N 39°35' W 011°54'914.1
2017-Jun-01 16:21N 39°44' W 011°51'514.2
2017-Jun-01 16:00N 39°48' W 011°49'714.1
2017-Jun-01 15:31N 39°55' W 011°47'713.9
2017-Jun-01 15:00N 40°02' W 011°45'714.2
2017-Jun-01 14:30N 40°09' W 011°42'55613.4
2017-May-30 20:54N 48°31' W 006°10'2412.4
2017-May-30 18:56N 48°52' W 005°51'611.8
2017-May-30 18:26N 48°56' W 005°44'1512.3
2017-May-30 17:14N 49°03' W 005°24'210.2
2017-May-30 17:00N 49°04' W 005°21'5 8.5
2017-May-30 16:25N 49°07' W 005°15'3 6.3
2017-May-30 15:56N 49°08' W 005°11'4212.5
2017-May-30 12:36N 49°29' W 004°15'313.6
2017-May-30 12:23N 49°31' W 004°11'513.2
2017-May-30 12:00N 49°34' W 004°05'612.8
2017-May-30 11:30N 49°37' W 003°56'612.4
2017-May-30 11:00N 49°40' W 003°48'611.9
2017-May-30 10:30N 49°43' W 003°40'611.5
2017-May-30 10:00N 49°46' W 003°32'611.3
2017-May-30 09:30N 49°48' W 003°25'611.3
2017-May-30 09:00N 49°51' W 003°17'611.6
2017-May-30 08:30N 49°54' W 003°09'612.3
2017-May-30 08:00N 49°57' W 003°01'712.7
2017-May-30 07:28N 49°60' W 002°51'613.5
2017-May-30 07:00N 50°01' W 002°42'714.2
2017-May-30 06:30N 50°03' W 002°31'1015.3
2017-May-30 05:52N 50°05' W 002°16'616.2
2017-May-30 05:30N 50°07' W 002°07'3715.4
2017-May-30 03:05N 49°56' W 001°12'115.2
2017-May-30 03:00N 49°55' W 001°10'914.5
2017-May-30 02:22N 49°50' W 000°58'513.5
2017-May-30 01:59N 49°47' W 000°51'612.9
2017-May-30 01:31N 49°44' W 000°44'612.5
2017-May-30 01:00N 49°40' W 000°36'611.7
2017-May-30 00:30N 49°39' W 000°27'612.1
2017-May-30 00:00N 49°36' W 000°19'611.5
2017-May-29 23:30N 49°34' W 000°11'510.2
2017-May-29 23:00N 49°31' W 000°04'713.1
2017-May-29 22:30N 49°29' E 000°06'3 4.8
2017-May-29 21:59N 49°28' E 000°09'0 0.0
2017-May-29 21:29N 49°28' E 000°09'0 0.0
2017-May-29 20:59N 49°28' E 000°09'0 0.0
2017-May-29 20:29N 49°28' E 000°09'0 0.0
2017-May-29 19:59N 49°28' E 000°09'0 0.0
2017-May-29 19:29N 49°28' E 000°09'0 0.0
2017-May-29 18:59N 49°28' E 000°09'0 0.0
2017-May-29 18:29N 49°28' E 000°09'0 0.0
2017-May-29 17:59N 49°28' E 000°09'0 0.0
2017-May-29 17:29N 49°28' E 000°09'0 0.0
2017-May-29 16:59N 49°28' E 000°09'0 0.0
2017-May-29 16:29N 49°28' E 000°09'0 0.0
2017-May-29 15:59N 49°28' E 000°09'0 0.0
2017-May-29 15:29N 49°28' E 000°09'0 0.0
2017-May-29 14:59N 49°28' E 000°09'0 0.0
2017-May-29 14:29N 49°28' E 000°09'0 0.0
2017-May-29 13:29N 49°28' E 000°09'0 0.0
2017-May-29 12:59N 49°28' E 000°09'0 0.0
2017-May-29 12:29N 49°28' E 000°09'0 0.0
2017-May-29 11:59N 49°28' E 000°09'0 0.0
2017-May-29 11:29N 49°28' E 000°09'0 0.0
2017-May-29 10:59N 49°28' E 000°09'0 0.0
2017-May-29 10:29N 49°28' E 000°09'0 0.0
2017-May-29 09:59N 49°28' E 000°09'0 0.0
2017-May-29 09:29N 49°28' E 000°09'0 0.0
2017-May-29 08:59N 49°28' E 000°09'0 0.0
2017-May-29 08:29N 49°28' E 000°09'0 0.0
2017-May-29 07:59N 49°28' E 000°09'0 0.0
2017-May-29 07:29N 49°28' E 000°09'0 0.0
2017-May-29 06:59N 49°28' E 000°09'0 0.0
2017-May-29 06:29N 49°28' E 000°09'0 0.0
2017-May-29 05:59N 49°28' E 000°09'0 0.0
2017-May-29 05:29N 49°28' E 000°09'0 0.0
2017-May-29 04:59N 49°28' E 000°09'0 0.0
2017-May-29 04:29N 49°28' E 000°09'0 0.0
2017-May-29 03:59N 49°28' E 000°09'0 0.0
2017-May-29 03:29N 49°28' E 000°09'0 0.0
2017-May-29 02:59N 49°28' E 000°09'0 0.0
2017-May-29 02:29N 49°28' E 000°09'0 0.0
2017-May-29 01:59N 49°28' E 000°09'0 0.0
2017-May-29 01:29N 49°28' E 000°09'0 0.0
2017-May-29 00:59N 49°28' E 000°09'0 0.0
2017-May-29 00:29N 49°28' E 000°09'0 0.0
2017-May-28 23:59N 49°28' E 000°09'0 0.0
2017-May-28 23:29N 49°28' E 000°09'0 0.0
2017-May-28 22:59N 49°28' E 000°09'0 0.0
2017-May-28 22:29N 49°28' E 000°09'0 0.0
2017-May-28 21:59N 49°28' E 000°09'0 0.0
2017-May-28 21:29N 49°28' E 000°09'0 0.0
2017-May-28 20:59N 49°28' E 000°09'0 0.0
2017-May-28 20:29N 49°28' E 000°09'0 0.0
2017-May-28 19:59N 49°28' E 000°09'0 0.0
2017-May-28 19:29N 49°28' E 000°09'0 0.0
2017-May-28 18:59N 49°28' E 000°09'0 0.0
2017-May-28 18:29N 49°28' E 000°09'0 0.0
2017-May-28 17:59N 49°28' E 000°09'0 0.0
2017-May-28 17:29N 49°28' E 000°09'0 0.0
2017-May-28 16:59N 49°28' E 000°09'0 0.0
2017-May-28 16:29N 49°28' E 000°09'0 0.0
2017-May-28 15:59N 49°28' E 000°09'0 0.0
2017-May-28 15:29N 49°28' E 000°09'0 0.0
2017-May-28 14:59N 49°28' E 000°09'0 0.0
2017-May-28 13:59N 49°28' E 000°09'0 0.0
2017-May-28 13:29N 49°28' E 000°09'0 0.0
2017-May-28 12:59N 49°28' E 000°09'0 0.0
2017-May-28 12:29N 49°28' E 000°09'0 0.0
2017-May-28 11:59N 49°28' E 000°09'0 0.0
2017-May-28 11:29N 49°28' E 000°09'0 0.0
2017-May-28 10:59N 49°28' E 000°09'0 0.0
2017-May-28 10:30N 49°28' E 000°09'0 0.3
2017-May-28 10:00N 49°28' E 000°09'3 5.2
2017-May-28 09:30N 49°29' E 000°06'5 9.5
2017-May-28 09:00N 49°30' W 000°02'611.3
2017-May-28 08:30N 49°32' W 000°10'4 7.7
2017-May-28 08:00N 49°35' W 000°14'0 0.4
2017-May-28 07:29N 49°35' W 000°14'0 0.2
2017-May-28 06:59N 49°35' W 000°14'0 0.1
2017-May-28 06:29N 49°35' W 000°14'0 0.2
2017-May-28 05:59N 49°35' W 000°14'0 0.0
2017-May-28 05:29N 49°35' W 000°14'0 0.0
2017-May-28 04:59N 49°35' W 000°14'0 0.0
2017-May-28 04:29N 49°35' W 000°14'0 0.0
2017-May-28 03:59N 49°35' W 000°14'0 0.0
2017-May-28 03:29N 49°35' W 000°14'0 0.1
2017-May-28 02:59N 49°35' W 000°14'0 0.0
2017-May-28 02:29N 49°35' W 000°14'0 0.0
2017-May-28 01:59N 49°35' W 000°14'0 0.1
2017-May-28 01:29N 49°35' W 000°14'0 0.4
2017-May-28 00:59N 49°35' W 000°14'0 0.1
2017-May-28 00:29N 49°35' W 000°14'0 0.0
2017-May-27 23:59N 49°35' W 000°14'0 0.0
2017-May-27 23:29N 49°35' W 000°14'0 0.1
2017-May-27 22:59N 49°35' W 000°14'0 0.0
2017-May-27 22:29N 49°35' W 000°14'0 0.0
2017-May-27 21:59N 49°35' W 000°14'0 0.1
2017-May-27 21:29N 49°35' W 000°14'0 0.0
2017-May-27 20:59N 49°35' W 000°14'0 0.1
2017-May-27 20:29N 49°35' W 000°14'0 0.1
2017-May-27 19:59N 49°35' W 000°14'0 0.0
2017-May-27 19:29N 49°35' W 000°14'0 0.3
2017-May-27 18:59N 49°35' W 000°14'0 0.2
2017-May-27 18:29N 49°35' W 000°14'0 0.2
2017-May-27 17:59N 49°35' W 000°14'0 0.0
2017-May-27 17:29N 49°35' W 000°14'0 0.0
2017-May-27 16:59N 49°35' W 000°14'0 0.0
2017-May-27 16:29N 49°35' W 000°14'0 0.0
2017-May-27 15:59N 49°35' W 000°14'0 0.0
2017-May-27 15:29N 49°35' W 000°14'0 0.0
2017-May-27 14:59N 49°35' W 000°14'0 0.0
2017-May-27 14:29N 49°35' W 000°14'0 0.2
2017-May-27 13:29N 49°35' W 000°14'0 0.3
2017-May-27 12:59N 49°35' W 000°14'0 0.1
2017-May-27 12:29N 49°35' W 000°14'0 0.1
2017-May-27 11:59N 49°35' W 000°14'0 0.0
2017-May-27 11:29N 49°35' W 000°14'0 0.0
2017-May-27 10:59N 49°35' W 000°14'0 0.0
2017-May-27 10:23N 49°35' W 000°14'0 0.0
2017-May-27 09:59N 49°35' W 000°14'0 0.0
2017-May-27 09:29N 49°35' W 000°14'0 0.2
2017-May-27 08:59N 49°35' W 000°14'0 0.1
2017-May-27 08:29N 49°35' W 000°14'0 0.1
2017-May-27 07:59N 49°35' W 000°14'0 0.1
2017-May-27 07:29N 49°35' W 000°14'0 0.0
2017-May-27 06:59N 49°35' W 000°14'0 0.3
2017-May-27 06:29N 49°35' W 000°14'0 0.2
2017-May-27 05:59N 49°35' W 000°14'0 0.1
2017-May-27 05:29N 49°35' W 000°14'0 0.0
2017-May-27 04:59N 49°35' W 000°14'0 0.0
2017-May-27 04:29N 49°35' W 000°14'0 0.0
2017-May-27 03:59N 49°35' W 000°14'0 0.0
2017-May-27 03:29N 49°35' W 000°14'0 0.1
2017-May-27 02:59N 49°35' W 000°14'0 0.0
2017-May-27 02:29N 49°35' W 000°14'0 0.1
2017-May-27 01:59N 49°35' W 000°14'0 0.0
2017-May-27 01:29N 49°35' W 000°14'0 0.0
2017-May-27 00:59N 49°35' W 000°14'0 0.2
2017-May-27 00:29N 49°35' W 000°14'0 0.4
2017-May-26 23:59N 49°35' W 000°14'0 0.1
2017-May-26 23:29N 49°35' W 000°14'0 0.1
2017-May-26 22:59N 49°35' W 000°14'0 0.1
2017-May-26 22:29N 49°35' W 000°14'0 0.1
2017-May-26 21:59N 49°35' W 000°14'0 0.0
2017-May-26 21:29N 49°35' W 000°14'0 0.0
2017-May-26 20:59N 49°35' W 000°14'0 0.0
2017-May-26 20:29N 49°35' W 000°14'0 0.1
2017-May-26 19:59N 49°35' W 000°14'0 0.1
2017-May-26 19:29N 49°35' W 000°14'0 0.1
2017-May-26 18:59N 49°35' W 000°14'0 0.2
2017-May-26 18:29N 49°35' W 000°14'0 0.3
2017-May-26 17:59N 49°35' W 000°14'0 0.2
2017-May-26 17:29N 49°35' W 000°14'0 0.1
2017-May-26 16:59N 49°35' W 000°14'0 0.1
2017-May-26 16:29N 49°35' W 000°14'0 0.0
2017-May-26 15:59N 49°35' W 000°14'0 0.0
2017-May-26 15:29N 49°35' W 000°14'0 0.0
2017-May-26 14:59N 49°35' W 000°14'0 0.0
2017-May-26 14:29N 49°35' W 000°14'0 0.0
2017-May-26 13:29N 49°35' W 000°14'0 0.0
2017-May-26 12:59N 49°35' W 000°14'0 0.1
2017-May-26 12:29N 49°35' W 000°14'0 0.5
2017-May-26 11:59N 49°35' W 000°14'0 0.1
2017-May-26 11:29N 49°35' W 000°14'0 0.1
2017-May-26 10:59N 49°35' W 000°14'0 0.0
2017-May-26 10:29N 49°35' W 000°14'0 0.0
2017-May-26 09:59N 49°35' W 000°14'0 0.0
2017-May-26 09:29N 49°35' W 000°14'0 0.0
2017-May-26 08:59N 49°35' W 000°14'0 0.0
2017-May-26 08:29N 49°35' W 000°14'0 0.0
2017-May-26 07:59N 49°35' W 000°14'0 0.1
2017-May-26 07:29N 49°35' W 000°14'0 0.1
2017-May-26 06:59N 49°35' W 000°14'0 0.1
2017-May-26 06:29N 49°35' W 000°14'0 0.3
2017-May-26 05:59N 49°35' W 000°14'0 0.3
2017-May-26 05:29N 49°35' W 000°14'0 0.1
2017-May-26 04:59N 49°35' W 000°14'0 0.0
2017-May-26 04:29N 49°35' W 000°14'0 0.1
2017-May-26 03:59N 49°35' W 000°14'0 0.0
2017-May-26 03:29N 49°35' W 000°14'0 0.0
2017-May-26 02:59N 49°35' W 000°14'0 0.0
2017-May-26 02:29N 49°35' W 000°14'0 0.0
2017-May-26 01:59N 49°35' W 000°14'0 0.0
2017-May-26 01:29N 49°35' W 000°14'  

Dump ship's entire track history